Dawson, North Dakota
Current Conditions -  °F | °C
As of 11:52 PM on Thursday 18 Dec 2014 (Local Time) from KBIS Reporting Station
Overcast Overcast  
Wind Chill: -6°   Ceiling: 600
Heat Index: -3°   Visibility: 8mi
Dew Point: -4°   Wind: 5mph
Humidity: 92%   Direction: 170°S
Pressure: 30.01"   Gusts: NA
Location:  46.87°N, 99.75°W
Report Text: KBIS 190552Z AUTO 17004KT 8SM OVC006 M03/M04 A3001 RMK AO2 SLP187 T10281039 11022 21033 410221089 55006
Loading
Personal Weather Stations






























Interactive Weather Map New forecast layout! Learn more

10-Day Weather Forecast

Advertisements
Track Severe Weather on mobile